UNR Ag. Experiment Farm, Sparks, Nevada Weather observations

Data are for 10 minute period ending at time listed.
 Day   Time   Solar   Ave.   Ave.  Ave.  Vector  Max.   Baro.   Total    
  of    of     Rad.   Air    Rel.  Wind   Wind   Wind  Press.  Precip.   
Year   Day            Temp.  Hum.  Speed  Dir.   Gust                    
2026   (PST)  Kw/m2    F      %     mph   deg.    mph    mb.     in.     
-------------------------------------------------------------------------
 124   14:00   0.57   58.5    55   10.1   179    16.9   860.2    0.00 
 124   14:10   0.81   59.5    54    9.5   176    14.9   860.2    0.00 
 124   14:20   0.83   59.9    55    8.9   173    14.4   860.2    0.00 
 124   14:30   0.82   60.0    51   10.4   167    17.5   860.0    0.00 
 124   14:40   0.71   60.7    50    7.6   171    12.6   860.0    0.00 
 124   14:50   0.30   59.9    52    6.8   206    13.1   860.0    0.00 
 124   15:00   0.45   59.5    51    7.7   234    14.7   860.0    0.00 
 124   15:10   0.34   59.4    52   10.1   248    15.7   859.8    0.00 
 124   15:20   0.64   59.3    52    8.5   203    15.7   859.8    0.00 
 124   15:30   0.26   58.1    55   11.0   183    16.6   859.8    0.00 
 124   15:40   0.24   56.0    61   11.8   177    18.9   859.9    0.00 
 124   15:50   0.22   55.3    63   11.6   191    16.8   859.9    0.00 
 124   16:00   0.11   54.7    65    9.5   184    17.1   859.9    0.00 
 124   16:10   0.04   53.4    69    9.8   174    13.7   860.0    0.00 
 124   16:20   0.01   53.0    69   10.6   174    16.8   860.2    0.00 
 124   16:30   0.01   52.6    70   11.0   166    15.8   860.4    0.00 
 124   16:40   0.00   52.0    73   13.1   160    20.8   860.8    0.01 
 124   16:50   0.00   50.7    79    7.7   176    11.5   861.1    0.01 
 124   17:00   0.00   49.9    85    9.3   177    15.1   861.1    0.02 
 124   17:10   0.00   49.0    87    8.8   179    13.2   861.2    0.01 
 124   17:20   0.00   48.5    90    5.1   156     8.9   862.0    0.03 
 124   17:30   0.00   48.2    91    7.9   195    10.7   861.6    0.05 
 124   17:40   0.00   47.7    93    8.2   215    13.9   860.8    0.01 
 124   17:50   0.01   47.8    93    5.6   213    11.3   860.4    0.00 
 124   18:00   0.01   48.0    92    1.1    90     2.8   860.8    0.00 
 124   18:10   0.01   48.1    90    2.8   323     6.8   860.9    0.00 
 124   18:20   0.01   48.3    84    4.2   342     8.1   861.0    0.00 
 124   18:30   0.00   47.7    78    9.6   291    16.7   861.0    0.00 
 124   18:40   0.00   47.4    79    8.3   327    12.5   861.4    0.00 
 124   18:50   0.00   47.2    80    8.9   321    13.5   861.5    0.02 
 124   19:00   0.00   46.6    81    4.7   284     9.1   861.3    0.02 
 124   19:10   0.00   46.3    81    4.9   310     8.7   861.7    0.01 
 124   19:20   0.00   45.8    85    4.9   234     8.0   860.8    0.03 
 124   19:30   0.00   45.3    89    4.4   316     7.9   860.7    0.00 
 124   19:40   0.00   45.0    92    4.6    64     6.9   861.2    0.00 
 124   19:50   0.00   45.7    91    1.8    70     5.4   861.4    0.00 
 124   20:00   0.00   46.2    91    2.5   209     3.5   861.5    0.00 
 124   20:10   0.00   46.1    92    4.4   190     9.7   861.3    0.00 
 124   20:20   0.00   46.4    87    5.1   237     9.5   861.4    0.00 
 124   20:30   0.00   47.1    80    5.3   290     8.8   861.6    0.00 
 124   20:40   0.00   47.0    78    5.1   291    12.7   861.6    0.00 
 124   20:50   0.00   47.1    78    7.4   300    11.6   861.6    0.00 
 124   21:00   0.00   46.7    80    6.4   326    11.5   861.6    0.00 
 124   21:10   0.00   46.5    81    5.5   334    11.1   861.8    0.00 
 124   21:20   0.00   46.6    82    5.6   334     8.0   861.8    0.00 
 124   21:30   0.00   47.3    77    4.5   321     8.2   861.5    0.00 
 124   21:40   0.00   47.1    77    4.9   326     7.8   861.5    0.00 
 124   21:50   0.00   47.1    76    4.5   324     8.4   861.4    0.00 
 124   22:00   0.00   46.6    78    2.4   344     5.4   861.3    0.00 
 124   22:10   0.00   46.2    80    3.4     6     4.3   861.3    0.00 
 124   22:20   0.00   45.8    87    1.0   277     3.4   861.3    0.00 
 124   22:30   0.00   45.8    87    1.2   351     2.5   861.2    0.00 
 124   22:40   0.00   46.1    86    3.2    15     5.0   861.3    0.00 
 124   22:50   0.00   45.8    88    4.8    16     7.5   861.6    0.00 
 124   23:00   0.00   46.1    87    4.2    19     5.6   861.7    0.00 
 124   23:10   0.00   45.7    90    3.9    29     5.1   861.9    0.00 
 124   23:20   0.00   46.0    90    3.4    46     5.0   862.0    0.00 
 124   23:30   0.00   46.0    90    2.1   282     5.6   861.9    0.00 
 124   23:40   0.00   46.1    91    4.3   253     5.7   861.8    0.00 
 124   23:50   0.00   46.0    90    4.5   278     6.4   861.8    0.00 
 125    0:00   0.00   46.0    89    2.9   295     5.8   861.8    0.00 
 125    0:10   0.00   45.9    89    2.9   318     4.0   861.9    0.00 
 125    0:20   0.00   46.0    88    1.6   298     4.4   861.8    0.00 
 125    0:30   0.00   46.1    83    3.7   290     5.4   861.8    0.00 
 125    0:40   0.00   45.9    80    3.4   275     5.6   861.8    0.00 
 125    0:50   0.00   45.8    82    2.6   228     5.1   861.7    0.00 
 125    1:00   0.00   45.7    83    1.5   199     3.8   861.6    0.00 
 125    1:10   0.00   45.4    85    0.3   158     2.0   861.5    0.00 
 125    1:20   0.00   45.5    86    2.3   143     3.8   861.5    0.00 
 125    1:30   0.00   45.2    89    3.1   128     3.8   861.5    0.00 
 125    1:40   0.00   45.3    90    2.2   142     2.9   861.5    0.00 
 125    1:50   0.00   45.2    91    1.1   139     2.0   861.4    0.00 
 125    2:00   0.00   45.3    92    0.6   144     1.7   861.3    0.00 
 125    2:10   0.00   45.4    92    0.4   275     1.4   861.3    0.00 
 125    2:20   0.00   45.2    91    0.2   292     1.1   861.3    0.00 
 125    2:30   0.00   45.3    89    1.1   287     2.3   861.3    0.00 
 125    2:40   0.00   45.6    90    1.6   246     2.5   861.3    0.00 
 125    2:50   0.00   46.1    88    0.9   250     2.3   861.2    0.00 
 125    3:00   0.00   46.2    88    1.4   284     1.8   861.2    0.00 
 125    3:10   0.00   46.1    88    0.3   285     1.1   861.1    0.00 
 125    3:20   0.00   46.3    87    0.0     0     0.0   861.1    0.00 
 125    3:30   0.00   46.4    85    0.0     0     0.0   861.0    0.00 
 125    3:40   0.00   46.5    86    1.5   126     2.5   861.1    0.00 
 125    3:50   0.00   46.4    87    2.5   140     3.8   861.1    0.00 
 125    4:00   0.00   46.2    91    1.4   154     3.1   861.1    0.00 
 125    4:10   0.00   46.2    91    1.0   129     2.0   861.1    0.00 
 125    4:20   0.00   46.5    89    0.8   110     2.3   861.1    0.00 
 125    4:30   0.00   46.7    88    0.9   177     1.5   861.1    0.00 
 125    4:40   0.00   46.6    88    1.1   166     1.9   861.1    0.00 
 125    4:50   0.00   46.6    89    1.3    89     1.7   861.1    0.00 
 125    5:00   0.00   46.6    89    1.1    84     1.4   861.1    0.00 
 125    5:10   0.00   47.0    88    0.3   115     0.9   861.2    0.00 
 125    5:20   0.01   47.1    87    0.1   115     0.8   861.2    0.00 
 125    5:30   0.01   47.1    87    0.9    63     1.7   861.3    0.00 
 125    5:40   0.01   47.1    86    1.6    79     2.2   861.4    0.00 
 125    5:50   0.01   47.3    85    1.6    56     2.2   861.5    0.00 
 125    6:00   0.04   47.6    85    0.2    90     0.9   861.5    0.00 
 125    6:10   0.03   47.9    84    1.6    54     3.2   861.8    0.00 
 125    6:20   0.03   48.0    83    2.0    61     3.1   861.9    0.00 
 125    6:30   0.04   48.1    82    1.3    15     1.8   861.9    0.00 
 125    6:40   0.05   48.4    81    1.7   329     2.7   862.0    0.00 
 125    6:50   0.09   48.6    81    2.0    23     3.9   862.1    0.00 
 125    7:00   0.10   49.1    77    0.9   337     2.5   862.2    0.00 
 125    7:10   0.11   49.4    74    1.5   311     2.9   862.3    0.00 
 125    7:20   0.12   49.6    74    0.8   336     1.9   862.3    0.00 
 125    7:30   0.12   49.9    74    0.8   230     1.9   862.4    0.00 
 125    7:40   0.12   50.0    73    0.7   198     2.5   862.5    0.00 
 125    7:50   0.13   50.3    73    0.5   121     1.2   862.6    0.00 
 125    8:00   0.15   50.4    74    1.0   168     2.4   862.7    0.00 
 125    8:10   0.17   50.6    75    1.1   151     2.3   862.7    0.00 
 125    8:20   0.19   50.8    74    1.0   120     2.9   862.8    0.00 
 125    8:30   0.23   51.3    72    1.2   182     2.5   863.0    0.00 
 125    8:40   0.31   51.7    71    0.8   139     2.6   863.0    0.00 
 125    8:50   0.33   52.5    70    0.9   194     3.1   863.0    0.00 
 125    9:00   0.36   52.6    72    1.7   165     4.3   863.0    0.00 
 125    9:10   0.36   52.7    72    2.0   136     4.7   863.0    0.00 
 125    9:20   0.42   52.5    73    3.9   162     7.2   863.0    0.00 
 125    9:30   0.41   52.6    73    4.4   179     7.9   863.1    0.00 
 125    9:40   0.43   53.1    72    3.3   158     7.5   863.2    0.00 
 125    9:50   0.39   53.3    70    3.9   174     6.2   863.3    0.00 
 125   10:00   0.83   54.2    69    2.8   177     5.6   863.3    0.00 
 125   10:10   0.91   56.0    66    4.3   106     7.7   863.4    0.00 
 125   10:20   0.93   57.0    64    3.6    80     9.0   863.5    0.00 
 125   10:30   0.67   56.5    65    3.1   192     8.0   863.5    0.00 
 125   10:40   0.89   58.6    63    1.6   148     3.9   863.4    0.00 
 125   10:50   0.55   58.7    61    2.4   262     7.5   863.4    0.00 
 125   11:00   0.90   58.5    59    1.6   170     5.0   863.3    0.00 
 125   11:10   1.12   59.7    57    2.6   151     6.3   863.3    0.00 
 125   11:20   0.38   59.2    57    2.5   215     5.7   863.4    0.00 
 125   11:30   1.14   59.8    56    3.1   137     5.5   863.4    0.00 
 125   11:40   1.14   61.7    55    3.0    68     6.5   863.3    0.00 
 125   11:50   1.13   62.2    55    3.4   216     8.3   863.2    0.00 
 125   12:00   0.48   62.0    53    2.7   334     6.2   863.2    0.00 
 125   12:10   0.88   62.1    51    2.4    64     5.5   863.1    0.00 
 125   12:20   1.05   63.6    48    2.2    14     6.5   863.0    0.00 
 125   12:30   0.85   64.3    47    4.9    78     8.5   863.0    0.00 
 125   12:40   0.93   63.8    48    3.2    37     7.2   862.9    0.00 
 125   12:50   0.79   63.9    47    3.8   244     9.6   862.9    0.00 
 125   13:00   1.05   64.8    46    2.7   171     7.8   862.8    0.00 
 125   13:10   0.72   64.5    43    2.6   137     5.8   862.7    0.00 
 125   13:20   1.14   65.9    42    3.7   281     7.8   862.6    0.00 
 125   13:30   0.79   65.9    43    4.2   261     9.4   862.5    0.00 
 125   13:40   0.78   67.3    41    2.9    81     7.9   862.4    0.00 
 125   13:50   1.00   67.1    39    3.0   157     7.5   862.3    0.00 

Return to Sparks, Nevada, UNR Ag Experiment Farm graphs page.


Western Regional Climate Center,wrcc@dri.edu